createdAt,value
2022-10-21T00:00:59.323Z,36.60
2022-10-21T00:06:01.628Z,36.60
2022-10-21T00:11:06.547Z,36.50
2022-10-21T00:16:17.955Z,36.40
2022-10-21T00:21:22.128Z,36.40
2022-10-21T00:26:24.263Z,36.70
2022-10-21T00:31:26.485Z,36.60
2022-10-21T00:36:28.592Z,36.60
2022-10-21T00:41:30.630Z,36.60
2022-10-21T00:51:38.249Z,36.50
2022-10-21T00:56:43.949Z,36.70
2022-10-21T01:01:46.111Z,36.50
2022-10-21T01:06:48.834Z,36.70
2022-10-21T01:11:50.791Z,37.00
2022-10-21T01:17:26.404Z,36.70
2022-10-21T01:23:02.648Z,36.70
2022-10-21T01:28:32.002Z,36.90
2022-10-21T01:33:45.295Z,37.00
2022-10-21T01:38:50.473Z,36.90
2022-10-21T01:49:11.124Z,37.10
2022-10-21T01:54:22.494Z,37.00
2022-10-21T01:59:28.748Z,36.90
2022-10-21T02:04:33.897Z,37.00
2022-10-21T02:09:36.033Z,36.90
2022-10-21T02:15:00.475Z,37.70
2022-10-21T02:20:07.566Z,37.00
2022-10-21T02:25:24.613Z,36.80
2022-10-21T02:30:32.349Z,37.00
2022-10-21T02:36:00.069Z,36.90
2022-10-21T02:41:06.232Z,37.00
2022-10-21T02:46:11.471Z,37.10
2022-10-21T02:51:14.860Z,37.30
2022-10-21T02:56:16.979Z,37.10
2022-10-21T03:01:19.277Z,37.10
2022-10-21T03:06:21.391Z,37.90
2022-10-21T03:11:23.639Z,37.10
2022-10-21T03:16:25.768Z,37.70
2022-10-21T03:21:27.905Z,37.70
2022-10-21T03:26:30.019Z,37.00
2022-10-21T03:31:32.375Z,37.10
2022-10-21T03:36:34.413Z,37.00
2022-10-21T03:41:36.439Z,37.10
2022-10-21T03:46:38.511Z,37.30
2022-10-21T03:51:40.591Z,37.10
2022-10-21T03:56:42.667Z,36.90
2022-10-21T04:01:44.782Z,37.00
2022-10-21T04:06:47.240Z,37.10
2022-10-21T04:11:49.342Z,36.90
2022-10-21T04:17:02.088Z,37.80
2022-10-21T04:22:04.558Z,37.00
2022-10-21T04:27:06.650Z,37.00
2022-10-21T04:32:08.714Z,37.00
2022-10-21T04:37:11.013Z,37.00
2022-10-21T04:42:13.070Z,37.00
2022-10-21T04:47:15.375Z,37.10
2022-10-21T04:52:17.503Z,37.00
2022-10-21T04:57:20.451Z,37.00
2022-10-21T05:02:25.349Z,37.00
2022-10-21T05:07:27.873Z,37.70
2022-10-21T05:12:29.975Z,37.00
2022-10-21T05:17:32.046Z,37.00
2022-10-21T05:22:34.167Z,37.10
2022-10-21T05:27:36.296Z,36.90
2022-10-21T05:32:39.518Z,37.10
2022-10-21T05:37:41.893Z,37.00
2022-10-21T05:47:46.613Z,37.00
2022-10-21T05:52:48.705Z,37.20
2022-10-21T06:02:53.826Z,37.00
2022-10-21T06:07:55.819Z,37.90
2022-10-21T06:12:58.008Z,37.00
2022-10-21T06:18:00.073Z,37.00
2022-10-21T06:23:02.154Z,37.00
2022-10-21T06:28:04.245Z,37.00
2022-10-21T06:33:06.299Z,37.10
2022-10-21T06:38:08.336Z,37.10
2022-10-21T06:43:10.691Z,37.80
2022-10-21T06:48:13.702Z,37.00
2022-10-21T06:53:15.716Z,37.70
2022-10-21T06:58:17.782Z,36.90
2022-10-21T07:03:19.812Z,37.00
2022-10-21T07:08:22.502Z,36.90
2022-10-21T07:13:36.559Z,38.10
2022-10-21T07:18:41.876Z,37.90
2022-10-21T07:23:46.810Z,36.90
2022-10-21T07:28:49.317Z,37.50
2022-10-21T07:33:51.530Z,37.90
2022-10-21T07:38:55.397Z,37.10
2022-10-21T07:43:58.172Z,37.70
2022-10-21T07:49:00.539Z,37.00
2022-10-21T07:54:03.007Z,37.10
2022-10-21T07:59:10.222Z,37.00
2022-10-21T08:04:18.525Z,37.90
2022-10-21T08:09:20.707Z,37.20
2022-10-21T08:14:22.914Z,37.50
2022-10-21T08:19:29.454Z,37.40
2022-10-21T08:24:31.779Z,37.60
2022-10-21T08:29:35.352Z,37.50
2022-10-21T08:34:40.082Z,37.40
2022-10-21T08:39:42.151Z,37.60
2022-10-21T08:44:53.626Z,37.60
2022-10-21T08:50:14.041Z,37.70
2022-10-21T08:55:21.512Z,37.70
2022-10-21T09:00:28.815Z,37.90
2022-10-21T09:05:57.019Z,37.70
2022-10-21T09:11:23.674Z,37.80
2022-10-21T09:16:50.668Z,38.60
2022-10-21T09:22:29.893Z,37.90
2022-10-21T09:27:32.269Z,38.00
2022-10-21T09:32:50.896Z,38.00
2022-10-21T09:38:21.354Z,38.00
2022-10-21T09:43:26.143Z,38.20
2022-10-21T09:54:21.957Z,38.60
2022-10-21T09:59:29.096Z,38.70
2022-10-21T10:04:35.295Z,38.60
2022-10-21T10:09:46.027Z,38.70
2022-10-21T10:14:48.581Z,38.70
2022-10-21T10:20:18.419Z,38.70
2022-10-21T10:25:24.286Z,38.60
2022-10-21T10:30:47.813Z,38.90
2022-10-21T10:35:55.824Z,39.10
2022-10-21T10:41:29.571Z,39.20
2022-10-21T10:46:36.565Z,39.40
2022-10-21T10:51:40.555Z,39.40
2022-10-21T10:57:20.085Z,40.00
2022-10-21T11:02:34.225Z,39.00
2022-10-21T11:07:51.537Z,38.90
2022-10-21T11:12:53.811Z,39.00
2022-10-21T11:18:17.104Z,38.80
2022-10-21T11:23:43.669Z,39.40
2022-10-21T11:29:12.947Z,38.00
2022-10-21T11:34:26.630Z,38.60
2022-10-21T11:39:47.768Z,37.70
2022-10-21T11:45:26.630Z,37.70
2022-10-21T11:50:53.611Z,36.50
2022-10-21T12:01:14.927Z,35.90
2022-10-21T12:06:26.205Z,35.90
2022-10-21T12:11:40.320Z,36.20
2022-10-21T12:16:43.602Z,33.40
2022-10-21T12:21:46.282Z,34.00
2022-10-21T12:26:59.327Z,34.00
2022-10-21T12:32:17.270Z,32.90
2022-10-21T12:37:48.432Z,33.00
2022-10-21T12:43:05.600Z,32.00
2022-10-21T12:48:28.560Z,30.00
2022-10-21T12:53:46.678Z,29.50
2022-10-21T12:58:59.167Z,27.50
2022-10-21T13:04:01.935Z,28.00
2022-10-21T13:09:35.969Z,28.00
2022-10-21T13:14:42.605Z,27.80
2022-10-21T13:19:44.712Z,27.20
2022-10-21T13:24:48.176Z,26.80
2022-10-21T13:29:51.518Z,26.50
2022-10-21T13:35:11.368Z,25.80
2022-10-21T13:40:18.184Z,25.60
2022-10-21T13:45:42.920Z,25.70
2022-10-21T13:50:47.773Z,26.20
2022-10-21T13:55:56.134Z,26.10
2022-10-21T14:01:07.823Z,25.90
2022-10-21T14:06:14.847Z,25.80
2022-10-21T14:11:32.217Z,26.30
2022-10-21T14:16:43.199Z,25.30
2022-10-21T14:21:49.293Z,25.80
2022-10-21T14:26:51.675Z,25.80
2022-10-21T14:31:54.311Z,25.80
2022-10-21T14:37:12.123Z,26.50
2022-10-21T14:42:23.640Z,25.90
2022-10-21T14:47:27.276Z,26.10
2022-10-21T14:52:35.100Z,26.10
2022-10-21T14:57:53.651Z,26.40
2022-10-21T15:02:56.904Z,26.60
2022-10-21T15:08:21.517Z,26.80
2022-10-21T15:13:25.440Z,27.10
2022-10-21T15:18:47.285Z,27.70
2022-10-21T15:23:53.456Z,27.60
2022-10-21T15:28:56.184Z,27.80
2022-10-21T15:33:58.688Z,28.00
2022-10-21T15:39:04.264Z,28.70
2022-10-21T15:44:33.209Z,28.20
2022-10-21T15:49:41.073Z,29.20
2022-10-21T15:54:43.595Z,29.70
2022-10-21T15:59:46.293Z,29.10
2022-10-21T16:04:51.527Z,30.10
2022-10-21T16:09:53.620Z,29.30
2022-10-21T16:14:55.742Z,29.60
2022-10-21T16:25:00.299Z,30.00
2022-10-21T16:30:13.919Z,30.50
2022-10-21T16:35:17.881Z,30.40
2022-10-21T16:40:34.982Z,31.50
2022-10-21T16:45:37.468Z,31.90
2022-10-21T16:50:45.514Z,32.00
2022-10-21T17:05:52.713Z,31.90
2022-10-21T17:10:54.800Z,32.10
2022-10-21T17:15:56.911Z,31.90
2022-10-21T17:20:59.090Z,31.90
2022-10-21T17:26:01.206Z,32.00
2022-10-21T17:31:03.321Z,33.00
2022-10-21T17:36:05.780Z,32.00
2022-10-21T17:41:09.435Z,32.10
2022-10-21T17:46:17.803Z,32.30
2022-10-21T17:51:21.728Z,33.20
2022-10-21T17:56:23.951Z,33.20
2022-10-21T18:01:26.187Z,32.60
2022-10-21T18:06:28.552Z,32.40
2022-10-21T18:11:31.124Z,33.40
2022-10-21T18:16:34.733Z,33.40
2022-10-21T18:21:36.922Z,32.60
2022-10-21T18:26:39.620Z,32.70
2022-10-21T18:31:41.845Z,33.90
2022-10-21T18:36:44.396Z,33.70
2022-10-21T18:41:46.524Z,33.00
2022-10-21T18:46:50.249Z,33.00
2022-10-21T18:51:54.634Z,33.80
2022-10-21T18:56:56.755Z,32.90
2022-10-21T19:01:59.102Z,33.00
2022-10-21T19:07:01.269Z,32.90
2022-10-21T19:12:03.717Z,32.90
2022-10-21T19:17:07.135Z,33.80
2022-10-21T19:22:09.281Z,33.70
2022-10-21T19:27:11.690Z,33.70
2022-10-21T19:32:15.427Z,32.90
2022-10-21T19:37:17.537Z,33.70
2022-10-21T19:47:22.083Z,32.90
2022-10-21T19:52:24.184Z,32.90
2022-10-21T19:57:26.353Z,32.90
2022-10-21T20:02:28.408Z,32.90
2022-10-21T20:07:37.236Z,33.80
2022-10-21T20:12:39.922Z,33.70
2022-10-21T20:17:42.392Z,32.80
2022-10-21T20:22:44.492Z,33.70
2022-10-21T20:27:46.612Z,33.60
2022-10-21T20:32:52.696Z,32.80
2022-10-21T20:37:54.862Z,33.50
2022-10-21T20:42:56.971Z,32.60
2022-10-21T20:47:59.087Z,32.70
2022-10-21T20:53:01.191Z,32.60
2022-10-21T20:58:03.541Z,32.80
2022-10-21T21:03:05.670Z,32.80
2022-10-21T21:08:08.127Z,32.80
2022-10-21T21:13:10.262Z,33.70
2022-10-21T21:18:14.068Z,33.10
2022-10-21T21:23:16.129Z,33.90
2022-10-21T21:28:18.246Z,33.30
2022-10-21T21:38:24.858Z,33.50
2022-10-21T21:43:28.559Z,34.20
2022-10-21T21:48:32.544Z,33.50
2022-10-21T21:53:34.600Z,33.60
2022-10-21T21:58:38.957Z,34.30
2022-10-21T22:03:41.517Z,33.50
2022-10-21T22:08:44.204Z,34.40
2022-10-21T22:13:46.597Z,33.70
2022-10-21T22:18:48.945Z,33.70
2022-10-21T22:23:51.773Z,34.50
2022-10-21T22:28:54.672Z,33.80
2022-10-21T22:33:57.145Z,33.90
2022-10-21T22:38:59.195Z,33.90
2022-10-21T22:44:01.320Z,33.90
2022-10-21T22:49:06.998Z,34.70
2022-10-21T22:54:19.306Z,34.00
2022-10-21T22:59:26.470Z,33.90
2022-10-21T23:04:28.650Z,34.70
2022-10-21T23:09:30.863Z,34.00
2022-10-21T23:14:33.068Z,34.00
2022-10-21T23:19:35.202Z,33.60
2022-10-21T23:24:37.630Z,34.20
2022-10-21T23:29:39.795Z,34.30
2022-10-21T23:39:44.307Z,34.40
2022-10-21T23:44:46.372Z,34.40
2022-10-21T23:49:48.451Z,35.30
2022-10-21T23:54:50.538Z,35.40
2022-10-21T23:59:52.838Z,34.70
